Time;durP1;ratioP1;P1;durP2;ratioP2;P2;SDS_P1;SDS_P2;PMS_P1;PMS_P2;Temp;Humidity;BMP_temperature;BMP_pressure;BME280_temperature;BME280_humidity;BME280_pressure;Samples;Min_cycle;Max_cycle;Signal;HPM_P1;HPM_P2
2022/04/06 00:00:13;;;;;;;4.00;3.30;;;;;;;6.77;70.67;95057.94;1752760;82;21018;-62
2022/04/06 00:02:41;;;;;;;7.50;2.77;;;;;;;6.83;69.94;95052.19;1753264;82;21027;-62
2022/04/06 00:05:10;;;;;;;3.40;2.77;;;;;;;6.91;69.76;95053.39;1752764;82;21031;-62
2022/04/06 00:07:41;;;;;;;4.63;2.73;;;;;;;7.01;67.77;95056.31;1753238;81;21010;-62
2022/04/06 00:10:12;;;;;;;2.53;2.23;;;;;;;7.13;68.38;95046.97;1753397;81;21016;-62
2022/04/06 00:12:39;;;;;;;2.67;2.20;;;;;;;7.28;67.21;95049.83;1754431;81;21038;-62
2022/04/06 00:15:09;;;;;;;3.47;2.80;;;;;;;7.36;67.06;95048.40;1755635;82;21497;-62
2022/04/06 00:17:37;;;;;;;2.90;2.10;;;;;;;7.47;66.11;95053.02;1755959;81;21102;-62
2022/04/06 00:20:06;;;;;;;5.37;1.97;;;;;;;7.53;66.51;95056.89;1755759;82;21041;-62
2022/04/06 00:22:33;;;;;;;3.63;2.03;;;;;;;7.55;64.91;95057.70;1755944;82;21030;-62
2022/04/06 00:25:00;;;;;;;3.10;2.00;;;;;;;7.60;65.10;95061.58;1755811;82;21417;-62
2022/04/06 00:27:27;;;;;;;2.57;2.30;;;;;;;7.65;64.62;95064.13;1755916;82;21002;-62
2022/04/06 00:29:53;;;;;;;2.47;2.00;;;;;;;7.68;63.61;95061.00;1755926;81;21518;-62
2022/04/06 00:32:20;;;;;;;3.83;1.87;;;;;;;7.70;64.12;95067.10;1755611;81;20980;-62
2022/04/06 00:37:32;;;;;;;2.17;1.57;;;;;;;7.74;63.33;95058.75;1755956;81;21002;-64
2022/04/06 00:39:58;;;;;;;2.00;1.80;;;;;;;7.74;63.81;95057.44;1756081;82;20963;-64
2022/04/06 00:42:25;;;;;;;1.70;1.43;;;;;;;7.73;64.56;95060.93;1755418;81;20995;-64
2022/04/06 00:44:52;;;;;;;3.17;1.87;;;;;;;7.70;64.53;95066.24;1756008;82;21457;-64
2022/04/06 00:47:18;;;;;;;2.40;1.57;;;;;;;7.66;64.34;95068.48;1750773;82;21488;-64
2022/04/06 00:49:44;;;;;;;3.53;1.40;;;;;;;7.63;65.33;95064.14;1755993;82;21046;-64
2022/04/06 00:52:12;;;;;;;2.10;1.57;;;;;;;7.57;65.50;95065.12;1755844;82;21473;-65
2022/04/06 00:54:40;;;;;;;3.23;1.83;;;;;;;7.53;65.02;95062.55;1755777;82;21002;-65
2022/04/06 00:57:07;;;;;;;3.63;1.93;;;;;;;7.49;65.66;95060.89;1755633;82;21509;-64
2022/04/06 00:59:34;;;;;;;3.67;1.87;;;;;;;7.40;66.22;95062.33;1755943;82;21010;-64
2022/04/06 01:02:01;;;;;;;2.33;1.60;;;;;;;7.33;66.04;95065.48;1755679;82;20999;-64
2022/04/06 01:04:27;;;;;;;1.43;1.27;;;;;;;7.31;65.98;95061.58;1755880;82;21524;-64
2022/04/06 01:06:55;;;;;;;2.00;1.80;;;;;;;7.31;66.18;95066.83;1755526;82;21026;-64
2022/04/06 01:09:22;;;;;;;1.83;1.70;;;;;;;7.33;65.53;95070.72;1755755;82;20967;-64
2022/04/06 01:11:52;;;;;;;3.33;1.80;;;;;;;7.42;64.68;95067.98;1755478;81;21026;-65
2022/04/06 01:14:21;;;;;;;1.83;1.57;;;;;;;7.51;64.39;95069.16;1754425;81;21023;-64
2022/04/06 01:17:03;;;;;;;2.10;1.60;;;;;;;7.55;64.11;95064.27;1755533;82;21054;-64
2022/04/06 01:19:37;;;;;;;4.37;1.50;;;;;;;7.57;64.29;95069.05;1755939;81;20998;-65
2022/04/06 01:22:11;;;;;;;1.40;1.30;;;;;;;7.64;63.54;95068.98;1755920;81;21026;-64
2022/04/06 01:24:38;;;;;;;1.47;1.35;;;;;;;7.69;63.42;95064.06;1756021;82;21091;-64
2022/04/06 01:27:07;;;;;;;1.50;1.40;;;;;;;7.72;63.28;95063.15;1755721;82;21062;-65
2022/04/06 01:29:34;;;;;;;3.73;1.40;;;;;;;7.73;63.15;95070.98;1755644;82;21497;-65
2022/04/06 01:32:20;;;;;;;1.50;1.40;;;;;;;7.75;63.75;95078.40;1755870;81;21078;-64
2022/04/06 01:34:48;;;;;;;2.07;1.40;;;;;;;7.72;63.48;95077.59;1755856;82;21022;-64
2022/04/06 01:37:16;;;;;;;2.60;1.37;;;;;;;7.73;63.14;95083.25;1755336;81;21057;-65
2022/04/06 01:39:45;;;;;;;1.77;1.50;;;;;;;7.78;62.68;95080.97;1756018;81;21007;-64
2022/04/06 01:42:17;;;;;;;2.23;1.37;;;;;;;7.83;62.78;95082.67;1755547;82;21026;-64
2022/04/06 01:44:46;;;;;;;2.23;1.50;;;;;;;7.82;62.75;95084.44;1755711;81;21021;-64
2022/04/06 01:47:17;;;;;;;1.33;1.17;;;;;;;7.82;62.76;95085.75;1755565;82;21019;-65
2022/04/06 01:52:32;;;;;;;3.17;1.97;;;;;;;7.76;62.93;95088.45;1755789;81;20971;-65
2022/04/06 01:55:08;;;;;;;2.50;2.10;;;;;;;7.79;62.42;95091.05;1756080;81;21011;-64
2022/04/06 01:57:36;;;;;;;3.73;2.57;;;;;;;7.84;62.14;95093.58;1755702;82;21424;-64
2022/04/06 02:00:15;;;;;;;4.80;3.43;;;;;;;7.85;62.25;95096.19;1755758;82;20999;-65
2022/04/06 02:02:44;;;;;;;4.63;2.20;;;;;;;7.85;62.31;95092.70;1755788;82;20991;-64
2022/04/06 02:05:13;;;;;;;2.80;2.17;;;;;;;7.83;62.25;95090.55;1755737;81;21070;-64
2022/04/06 02:07:42;;;;;;;3.13;2.20;;;;;;;7.80;62.26;95087.07;1755549;81;21066;-65
2022/04/06 02:10:10;;;;;;;3.53;2.30;;;;;;;7.78;62.72;95093.23;1756020;81;20991;-64
2022/04/06 02:12:38;;;;;;;2.87;1.80;;;;;;;7.73;62.48;95089.37;1754139;81;21081;-65
2022/04/06 02:15:08;;;;;;;2.67;2.20;;;;;;;7.71;63.79;95090.28;1747610;82;21007;-65
2022/04/06 02:17:35;;;;;;;3.20;2.30;;;;;;;7.70;62.86;95090.73;1747706;82;20991;-65
2022/04/06 02:20:03;;;;;;;2.00;1.80;;;;;;;7.72;62.61;95092.03;1747519;81;20976;-64
2022/04/06 02:22:30;;;;;;;2.60;2.40;;;;;;;7.75;63.02;95093.30;1747562;82;21010;-65
2022/04/06 02:24:56;;;;;;;4.77;2.10;;;;;;;7.72;62.84;95095.52;1747567;81;21485;-65
2022/04/06 02:27:23;;;;;;;4.10;1.97;;;;;;;7.74;62.89;95092.44;1747105;82;21039;-64
2022/04/06 02:29:49;;;;;;;4.53;1.53;;;;;;;7.74;62.64;95095.06;1747568;82;21363;-64
2022/04/06 02:32:16;;;;;;;3.07;2.23;;;;;;;7.69;63.57;95086.84;1747578;82;21007;-64
2022/04/06 02:34:42;;;;;;;2.27;1.70;;;;;;;7.65;63.30;95095.19;1747457;82;20976;-64
2022/04/06 02:37:11;;;;;;;1.50;1.30;;;;;;;7.57;64.60;95093.13;1747686;81;21501;-64
2022/04/06 02:39:38;;;;;;;2.27;1.30;;;;;;;7.46;64.95;95093.72;1747406;81;21081;-65
2022/04/06 02:42:06;;;;;;;2.50;1.90;;;;;;;7.39;65.51;95101.29;1747474;82;21070;-64
2022/04/06 02:44:34;;;;;;;2.30;1.77;;;;;;;7.32;66.08;95107.05;1747528;81;21053;-64
2022/04/06 02:47:01;;;;;;;3.33;2.30;;;;;;;7.27;66.68;95103.17;1747348;82;21047;-64
2022/04/06 02:49:27;;;;;;;2.97;1.50;;;;;;;7.23;67.00;95102.81;1747248;82;21058;-64
2022/04/06 02:51:54;;;;;;;3.40;2.10;;;;;;;7.22;66.45;95112.00;1747580;82;20987;-64
2022/04/06 02:54:20;;;;;;;2.03;1.60;;;;;;;7.18;66.73;95107.22;1747290;82;21496;-64
2022/04/06 02:56:48;;;;;;;1.97;1.50;;;;;;;7.16;66.75;95110.34;1747625;81;20995;-64
2022/04/06 02:59:15;;;;;;;3.87;1.97;;;;;;;7.13;67.51;95115.60;1747462;82;21050;-64
2022/04/06 03:01:42;;;;;;;1.70;1.60;;;;;;;7.07;67.48;95113.07;1747391;82;20979;-64
2022/04/06 03:04:08;;;;;;;2.87;1.53;;;;;;;7.04;67.59;95113.98;1747557;82;21473;-64
2022/04/06 03:06:37;;;;;;;2.67;1.60;;;;;;;7.04;67.01;95116.60;1747815;81;21055;-64
2022/04/06 03:09:04;;;;;;;2.67;1.73;;;;;;;7.00;67.09;95116.66;1747668;81;20999;-64
2022/04/06 03:11:31;;;;;;;3.47;1.70;;;;;;;6.99;67.52;95116.24;1747566;81;21489;-64
2022/04/06 03:13:57;;;;;;;2.40;1.67;;;;;;;7.02;67.06;95109.64;1750233;82;21081;-64
2022/04/06 03:16:24;;;;;;;4.30;1.60;;;;;;;7.03;67.60;95113.98;1752406;82;21062;-64
2022/04/06 03:18:51;;;;;;;2.20;1.67;;;;;;;7.03;67.46;95112.25;1752995;81;21070;-65
2022/04/06 03:21:18;;;;;;;2.47;1.80;;;;;;;7.00;67.56;95115.34;1753070;81;21066;-64
2022/04/06 03:23:44;;;;;;;3.40;2.10;;;;;;;6.98;67.88;95118.42;1753153;82;21003;-64
2022/04/06 03:26:12;;;;;;;4.03;2.20;;;;;;;6.94;67.91;95115.84;1752914;82;21513;-65
2022/04/06 03:28:39;;;;;;;2.23;1.63;;;;;;;6.93;67.91;95117.19;1753154;82;21015;-64
2022/04/06 03:31:06;;;;;;;2.77;1.90;;;;;;;6.88;67.94;95124.25;1752969;82;21067;-64
2022/04/06 03:33:34;;;;;;;2.20;2.00;;;;;;;6.85;68.35;95117.25;1753033;82;21070;-64
2022/04/06 03:36:00;;;;;;;2.97;1.77;;;;;;;6.86;68.19;95114.22;1753246;82;20991;-65
2022/04/06 03:38:28;;;;;;;1.50;1.30;;;;;;;6.90;68.39;95123.77;1753271;81;21404;-64
2022/04/06 03:40:54;;;;;;;2.70;1.57;;;;;;;6.84;68.44;95122.53;1753306;82;21019;-64
2022/04/06 03:43:22;;;;;;;2.97;2.07;;;;;;;6.81;68.56;95119.51;1753269;81;20976;-64
2022/04/06 03:45:49;;;;;;;2.27;1.70;;;;;;;6.82;68.32;95125.16;1752915;82;21058;-65
2022/04/06 03:48:15;;;;;;;2.80;1.80;;;;;;;6.72;68.29;95126.16;1753279;82;21026;-64
2022/04/06 03:50:42;;;;;;;5.67;5.07;;;;;;;6.64;68.28;95124.06;1753253;82;20999;-65
2022/04/06 03:53:09;;;;;;;2.23;1.97;;;;;;;6.53;69.80;95127.23;1753163;82;21110;-65
2022/04/06 03:55:35;;;;;;;2.20;1.77;;;;;;;6.40;68.94;95130.00;1753000;82;21027;-65
2022/04/06 03:58:02;;;;;;;3.73;1.63;;;;;;;6.34;68.82;95130.50;1753016;82;21010;-65
2022/04/06 04:00:29;;;;;;;2.77;1.57;;;;;;;6.32;68.75;95137.05;1753174;82;21508;-65
2022/04/06 04:02:55;;;;;;;3.03;2.13;;;;;;;6.31;68.68;95131.84;1753309;82;20979;-63
2022/04/06 04:05:22;;;;;;;3.97;1.40;;;;;;;6.21;69.14;95146.33;1753035;81;21035;-64
2022/04/06 04:07:48;;;;;;;4.53;2.00;;;;;;;6.17;70.28;95152.91;1753301;81;21107;-64
2022/04/06 04:10:19;;;;;;;1.97;1.40;;;;;;;6.15;69.61;95158.18;1753313;81;21019;-64
2022/04/06 04:12:43;;;;;;;2.10;1.77;;;;;;;6.08;70.20;95155.63;1753344;81;21552;-64
2022/04/06 04:15:10;;;;;;;2.27;1.73;;;;;;;6.06;70.05;95156.94;1755419;82;21520;-64
2022/04/06 04:17:37;;;;;;;1.83;1.37;;;;;;;6.09;70.05;95150.80;1755531;81;21544;-65
2022/04/06 04:20:06;;;;;;;2.93;1.67;;;;;;;6.09;70.72;95150.36;1755765;81;21489;-64
2022/04/06 04:22:32;;;;;;;5.80;2.10;;;;;;;6.08;70.35;95142.53;1755901;82;21011;-64
2022/04/06 04:24:59;;;;;;;2.30;1.83;;;;;;;6.11;70.12;95152.53;1756068;81;21089;-64
2022/04/06 04:27:25;;;;;;;4.13;2.93;;;;;;;6.09;70.42;95144.25;1756050;81;21042;-64
2022/04/06 04:29:52;;;;;;;7.37;3.70;;;;;;;6.05;70.26;95135.12;1755905;81;21015;-64
2022/04/06 04:32:19;;;;;;;4.30;2.80;;;;;;;6.18;69.36;95140.26;1726154;82;21047;-64
2022/04/06 04:34:46;;;;;;;4.43;2.57;;;;;;;6.22;69.43;95140.22;1755974;82;21011;-64
2022/04/06 04:37:12;;;;;;;17.50;9.80;;;;;;;6.31;69.27;95146.25;1755889;81;21062;-64
2022/04/06 04:39:39;;;;;;;20.97;9.90;;;;;;;6.30;69.40;95150.62;1755702;81;21023;-64
2022/04/06 04:42:07;;;;;;;20.03;10.37;;;;;;;6.38;69.28;95153.17;1755879;82;21050;-64
2022/04/06 04:44:34;;;;;;;14.40;7.50;;;;;;;6.44;69.30;95155.28;1755903;82;21062;-64
2022/04/06 04:47:01;;;;;;;24.13;13.07;;;;;;;6.54;69.21;95160.44;1755444;82;21142;-64
2022/04/06 04:49:28;;;;;;;6.20;3.90;;;;;;;6.61;69.15;95159.05;1755572;82;21105;-64
2022/04/06 04:51:54;;;;;;;14.37;5.17;;;;;;;6.64;69.23;95160.77;1755722;82;21027;-64
2022/04/06 04:54:24;;;;;;;5.80;3.00;;;;;;;6.62;69.27;95157.29;1755731;82;21437;-64
2022/04/06 04:56:52;;;;;;;10.50;5.30;;;;;;;6.66;69.45;95155.08;1755700;81;21086;-63
2022/04/06 04:59:19;;;;;;;5.10;3.73;;;;;;;6.66;69.49;95159.01;1756007;82;21034;-66
2022/04/06 05:01:45;;;;;;;5.77;3.33;;;;;;;6.74;69.80;95154.55;1754750;81;21077;-67
2022/04/06 05:04:12;;;;;;;8.10;3.97;;;;;;;6.77;69.68;95158.44;1754626;82;21061;-68
2022/04/06 05:06:39;;;;;;;13.33;8.57;;;;;;;6.85;69.50;95159.66;1754208;82;21073;-66
2022/04/06 05:09:06;;;;;;;22.13;11.17;;;;;;;6.87;69.56;95158.76;1754872;81;21022;-67
2022/04/06 05:11:33;;;;;;;31.93;16.20;;;;;;;6.97;69.27;95162.59;1755456;81;21035;-65
2022/04/06 05:14:00;;;;;;;29.03;11.80;;;;;;;7.11;68.45;95161.55;1754033;82;21062;-66
2022/04/06 05:16:27;;;;;;;17.77;9.10;;;;;;;7.27;67.44;95160.05;1753004;81;21109;-63
2022/04/06 05:18:55;;;;;;;10.43;6.10;;;;;;;7.41;66.68;95163.38;1752730;82;20991;-62
2022/04/06 05:21:22;;;;;;;11.50;5.37;;;;;;;7.54;65.75;95166.70;1753025;81;21034;-62
2022/04/06 05:23:48;;;;;;;15.07;6.63;;;;;;;7.75;65.25;95168.14;1752899;81;21054;-62
2022/04/06 05:26:15;;;;;;;13.20;8.67;;;;;;;7.94;65.46;95166.13;1752724;81;21045;-62
2022/04/06 05:28:42;;;;;;;12.40;5.93;;;;;;;8.10;65.00;95159.72;1751783;81;21078;-63
2022/04/06 05:31:08;;;;;;;14.77;7.83;;;;;;;8.22;65.31;95165.23;1752369;82;20998;-64
2022/04/06 05:33:35;;;;;;;7.70;4.60;;;;;;;8.32;64.65;95167.27;1753002;82;21031;-63
2022/04/06 05:36:03;;;;;;;5.90;4.40;;;;;;;8.45;61.96;95172.77;1752766;82;21031;-62
2022/04/06 05:38:34;;;;;;;6.63;4.60;;;;;;;8.59;63.14;95168.15;1751942;81;21113;-65
2022/04/06 05:40:59;;;;;;;8.07;6.43;;;;;;;8.81;60.35;95165.11;1752409;81;21010;-64
2022/04/06 05:43:25;;;;;;;5.03;3.47;;;;;;;8.96;60.83;95167.45;1752290;81;21054;-62
2022/04/06 05:45:52;;;;;;;7.93;3.93;;;;;;;9.07;59.04;95169.86;1751413;82;21642;-65
2022/04/06 05:48:18;;;;;;;5.30;4.10;;;;;;;9.16;59.94;95164.43;1751252;82;21042;-65
2022/04/06 05:50:46;;;;;;;7.87;6.10;;;;;;;9.26;59.85;95166.43;1751134;81;21007;-64
2022/04/06 05:53:13;;;;;;;5.13;3.77;;;;;;;9.39;59.87;95165.27;1752070;82;21097;-65
2022/04/06 05:55:42;;;;;;;5.00;3.83;;;;;;;9.52;58.10;95168.51;1750747;82;21129;-65
2022/04/06 05:58:09;;;;;;;3.73;2.80;;;;;;;9.61;58.76;95169.64;1751574;82;21121;-64
2022/04/06 06:00:36;;;;;;;6.33;4.40;;;;;;;9.73;59.48;95164.56;1752146;82;21513;-67
2022/04/06 06:03:03;;;;;;;3.80;2.70;;;;;;;9.87;58.38;95160.28;1752928;81;20998;-68
2022/04/06 06:05:30;;;;;;;5.07;4.33;;;;;;;10.03;56.20;95167.38;1753272;81;21023;-62
2022/04/06 06:07:56;;;;;;;4.27;3.57;;;;;;;10.19;56.34;95166.13;1753214;82;20998;-63
2022/04/06 06:10:24;;;;;;;5.03;3.13;;;;;;;10.35;55.50;95161.37;1752640;81;21019;-62
2022/04/06 06:12:50;;;;;;;3.70;2.60;;;;;;;10.49;55.45;95156.63;1753271;81;20983;-63
2022/04/06 06:15:17;;;;;;;12.00;10.43;;;;;;;10.59;54.57;95159.45;1749152;82;21022;-62
2022/04/06 06:17:43;;;;;;;4.30;3.90;;;;;;;10.71;53.75;95158.28;1746048;82;21517;-62
2022/04/06 06:20:11;;;;;;;3.85;2.77;;;;;;;10.83;54.19;95163.66;1747190;82;20995;-63
2022/04/06 06:22:38;;;;;;;3.20;2.75;;;;;;;10.96;53.01;95161.56;1747218;82;21094;-63
2022/04/06 06:25:07;;;;;;;3.35;2.52;;;;;;;11.05;53.19;95166.60;1747141;82;21023;-63
2022/04/06 06:27:41;;;;;;;3.15;2.30;;;;;;;11.11;52.31;95158.50;1747650;81;21015;-62
2022/04/06 06:30:12;;;;;;;4.72;2.90;;;;;;;11.17;52.00;95161.45;1747138;81;21088;-63
2022/04/06 06:32:39;;;;;;;2.20;1.75;;;;;;;11.29;53.01;95157.58;1747386;81;21105;-63
2022/04/06 06:35:08;;;;;;;3.02;2.58;;;;;;;11.38;51.52;95166.57;1747095;82;21026;-62
2022/04/06 06:37:35;;;;;;;4.12;2.62;;;;;;;11.40;50.62;95160.80;1747343;82;21073;-64
2022/04/06 06:40:04;;;;;;;4.00;3.00;;;;;;;11.47;50.72;95164.53;1747147;81;21512;-63
2022/04/06 06:42:31;;;;;;;4.37;2.75;;;;;;;11.63;51.28;95154.84;1740590;82;21006;-63
2022/04/06 06:44:58;;;;;;;3.37;2.33;;;;;;;11.82;50.99;95161.77;1747069;81;21117;-63
2022/04/06 06:47:25;;;;;;;3.75;2.27;;;;;;;11.89;49.04;95164.21;1746884;82;21309;-64
2022/04/06 06:49:52;;;;;;;10.10;9.20;;;;;;;11.89;49.94;95173.89;1747432;81;21000;-62
2022/04/06 06:52:19;;;;;;;4.22;3.83;;;;;;;11.94;50.21;95168.47;1747126;82;21067;-67
2022/04/06 06:54:45;;;;;;;3.12;2.40;;;;;;;12.04;50.74;95171.23;1747119;82;21122;-63
2022/04/06 06:57:12;;;;;;;2.92;2.37;;;;;;;12.07;49.27;95175.11;1747678;82;21541;-63
2022/04/06 06:59:41;;;;;;;3.58;2.45;;;;;;;12.06;49.87;95174.25;1746483;82;21690;-62
2022/04/06 07:02:09;;;;;;;3.33;2.55;;;;;;;12.11;49.68;95180.25;1746975;81;21000;-64
2022/04/06 07:04:36;;;;;;;4.12;2.45;;;;;;;12.17;49.23;95180.55;1778873;80;21315;-64
2022/04/06 07:07:04;;;;;;;3.75;2.70;;;;;;;12.18;49.16;95186.69;1760998;80;21046;-63
2022/04/06 07:09:30;;;;;;;2.87;2.50;;;;;;;12.19;49.32;95187.95;1773906;81;21508;-62
2022/04/06 07:11:58;;;;;;;6.40;5.20;;;;;;;12.31;49.65;95183.59;1773527;81;21066;-65
2022/04/06 07:14:26;;;;;;;4.22;2.98;;;;;;;12.31;48.77;95184.06;1774019;80;21019;-64
2022/04/06 07:16:54;;;;;;;5.60;4.35;;;;;;;12.28;48.80;95190.31;1773995;81;21093;-63
2022/04/06 07:19:20;;;;;;;4.45;2.87;;;;;;;12.28;49.36;95192.10;1773942;81;21016;-64
2022/04/06 07:21:47;;;;;;;3.05;2.50;;;;;;;12.37;49.45;95193.58;1773352;81;21134;-67
2022/04/06 07:24:14;;;;;;;3.30;2.37;;;;;;;12.47;48.80;95202.95;1774160;81;21154;-65
2022/04/06 07:26:40;;;;;;;3.40;2.80;;;;;;;12.54;48.97;95211.10;1774721;81;21008;-66
2022/04/06 07:29:11;;;;;;;3.20;2.70;;;;;;;12.53;47.70;95216.86;1773309;81;20980;-65
2022/04/06 07:31:36;;;;;;;2.80;2.30;;;;;;;12.50;47.72;95210.34;1773933;81;21111;-66
2022/04/06 07:34:03;;;;;;;3.27;2.50;;;;;;;12.56;48.38;95216.75;1778332;80;20960;-67
2022/04/06 07:36:30;;;;;;;5.17;2.83;;;;;;;12.68;49.12;95213.31;1776224;81;21174;-63
2022/04/06 07:38:57;;;;;;;4.85;3.05;;;;;;;12.81;48.13;95229.19;1777767;80;21058;-67
2022/04/06 07:41:25;;;;;;;2.92;2.27;;;;;;;12.83;46.88;95224.72;1776384;80;21149;-66
2022/04/06 07:43:52;;;;;;;3.17;2.33;;;;;;;12.90;46.90;95220.95;1777369;80;21291;-67
2022/04/06 07:46:19;;;;;;;3.08;2.30;;;;;;;12.97;46.33;95224.23;1777142;80;21079;-65
2022/04/06 07:48:45;;;;;;;5.58;3.75;;;;;;;13.04;46.96;95224.44;1777267;80;21066;-63
2022/04/06 07:51:12;;;;;;;3.27;2.30;;;;;;;13.19;47.13;95231.86;1778007;80;21034;-63
2022/04/06 07:53:38;;;;;;;11.30;8.18;;;;;;;13.18;45.18;95234.58;1778488;80;20948;-66
2022/04/06 07:56:06;;;;;;;4.00;2.67;;;;;;;13.18;46.29;95227.49;1777446;80;21122;-64
2022/04/06 07:58:34;;;;;;;3.47;2.70;;;;;;;13.16;45.31;95235.09;1776916;80;21074;-66
2022/04/06 08:01:05;;;;;;;6.35;3.45;;;;;;;13.14;45.92;95228.97;1777599;81;21505;-63
2022/04/06 08:03:32;;;;;;;3.55;2.50;;;;;;;13.26;46.51;95231.67;1776924;80;21599;-65
2022/04/06 08:05:58;;;;;;;3.30;3.00;;;;;;;13.32;46.09;95227.49;1776180;81;21193;-64
2022/04/06 08:08:25;;;;;;;2.98;2.55;;;;;;;13.41;46.26;95245.73;1777140;80;21042;-64
2022/04/06 08:10:51;;;;;;;2.77;2.37;;;;;;;13.30;45.13;95235.95;1778375;80;21004;-67
2022/04/06 08:13:18;;;;;;;3.27;2.62;;;;;;;13.20;45.74;95235.37;1778441;80;21022;-62
2022/04/06 08:15:45;;;;;;;2.85;2.20;;;;;;;13.15;45.15;95228.93;1781823;80;21018;-62
2022/04/06 08:18:12;;;;;;;2.08;1.87;;;;;;;13.25;45.99;95239.19;1783926;80;21013;-65
2022/04/06 08:20:38;;;;;;;4.20;2.15;;;;;;;13.40;45.81;95232.92;1784054;80;21477;-66
2022/04/06 08:23:06;;;;;;;2.08;1.82;;;;;;;13.53;45.75;95241.33;1783034;79;21007;-64
2022/04/06 08:25:33;;;;;;;3.22;2.10;;;;;;;13.70;45.63;95231.88;1783090;80;21583;-64
2022/04/06 08:27:59;;;;;;;3.75;1.67;;;;;;;13.65;44.50;95242.65;1782722;80;21493;-67
2022/04/06 08:30:26;;;;;;;3.00;2.20;;;;;;;13.62;44.99;95239.65;1782870;79;21599;-65
2022/04/06 08:32:58;;;;;;;3.08;2.00;;;;;;;13.64;45.66;95245.77;1765582;80;21145;-64
2022/04/06 08:35:21;;;;;;;2.00;1.62;;;;;;;13.75;44.92;95229.92;1775159;81;20998;-64
2022/04/06 08:37:48;;;;;;;2.70;1.75;;;;;;;13.81;44.38;95236.34;1775555;81;21042;-65
2022/04/06 08:40:17;;;;;;;2.15;1.67;;;;;;;13.86;45.33;95237.04;1775110;81;21183;-66
2022/04/06 08:42:45;;;;;;;4.42;1.27;;;;;;;14.13;46.00;95244.40;1775174;81;21085;-63
2022/04/06 08:45:12;;;;;;;2.33;1.55;;;;;;;14.22;44.21;95245.38;1774992;81;21029;-68
2022/04/06 08:47:39;;;;;;;1.72;1.47;;;;;;;14.16;43.73;95250.94;1775008;81;21140;-67
2022/04/06 08:50:07;;;;;;;3.72;1.80;;;;;;;14.00;44.09;95247.13;1775308;81;21603;-65
2022/04/06 08:52:35;;;;;;;2.10;1.55;;;;;;;14.21;44.26;95248.08;1775715;81;21520;-65
2022/04/06 08:55:03;;;;;;;2.10;1.75;;;;;;;14.51;45.47;95236.73;1775717;81;21061;-67
2022/04/06 08:57:31;;;;;;;2.22;1.75;;;;;;;14.92;44.92;95235.58;1774625;81;21032;-65
2022/04/06 08:59:58;;;;;;;2.72;1.67;;;;;;;14.99;42.27;95252.97;1769645;79;21093;-68
2022/04/06 09:02:24;;;;;;;1.70;1.57;;;;;;;14.63;41.96;95236.28;1766515;79;20985;-67
2022/04/06 09:04:54;;;;;;;2.22;1.70;;;;;;;14.70;42.86;95247.06;1767429;81;20978;-64
2022/04/06 09:07:24;;;;;;;1.92;1.70;;;;;;;14.89;43.02;95238.34;1763178;81;20966;-64
2022/04/06 09:09:55;;;;;;;1.70;1.42;;;;;;;15.34;44.21;95238.67;1767112;81;20980;-64
2022/04/06 09:12:24;;;;;;;1.80;1.25;;;;;;;15.81;43.34;95234.44;1767216;80;21475;-63
2022/04/06 09:15:12;;;;;;;1.80;1.70;;;;;;;16.03;40.04;95224.13;1763689;81;21043;-64
2022/04/06 09:17:50;;;;;;;1.25;1.12;;;;;;;16.03;40.04;95224.13;1748972;81;21077;-65
2022/04/06 09:20:22;;;;;;;4.40;2.00;;;;;;;15.90;41.70;95241.12;1747697;81;21530;-64
2022/04/06 09:22:49;;;;;;;3.45;1.70;;;;;;;15.66;40.57;95239.93;1748227;81;21148;-66
2022/04/06 09:25:20;;;;;;;2.37;1.70;;;;;;;15.70;41.33;95240.24;1747575;81;21104;-65
2022/04/06 09:27:47;;;;;;;3.52;1.70;;;;;;;15.97;42.92;95235.93;1748521;81;20998;-64
2022/04/06 09:30:14;;;;;;;3.12;1.87;;;;;;;16.05;40.65;95225.82;1747540;81;21113;-64
2022/04/06 09:32:42;;;;;;;2.40;1.92;;;;;;;16.05;40.65;95225.82;1747736;81;21152;-64
2022/04/06 09:35:25;;;;;;;3.33;1.90;;;;;;;15.98;41.01;95220.38;1750235;81;21618;-64
2022/04/06 09:38:19;;;;;;;2.05;1.85;;;;;;;15.64;40.67;95217.86;1748720;81;21078;-64
2022/04/06 09:40:45;;;;;;;3.42;2.65;;;;;;;15.77;41.00;95219.53;1758964;81;21042;-63
2022/04/06 09:43:28;;;;;;;4.35;3.20;;;;;;;16.28;42.13;95217.20;1766784;81;21001;-64
2022/04/06 09:48:57;;;;;;;3.60;2.70;;;;;;;16.51;39.40;95221.47;1779508;81;21061;-64
2022/04/06 09:51:24;;;;;;;4.30;2.30;;;;;;;16.87;41.24;95209.04;1775835;81;21037;-63
2022/04/06 09:53:54;;;;;;;2.67;2.40;;;;;;;17.18;39.06;95211.97;1779640;81;21089;-63
2022/04/06 09:56:21;;;;;;;3.83;1.95;;;;;;;17.39;38.79;95204.70;1778890;81;21021;-64
2022/04/06 09:58:49;;;;;;;2.55;1.85;;;;;;;17.13;38.18;95204.68;1778696;80;21045;-64
2022/04/06 10:01:17;;;;;;;4.92;3.45;;;;;;;17.22;37.64;95202.89;1779348;81;21484;-64
2022/04/06 10:03:50;;;;;;;2.55;1.80;;;;;;;17.03;38.77;95206.94;1778450;81;21033;-64
2022/04/06 10:06:18;;;;;;;4.87;4.08;;;;;;;16.81;38.21;95198.70;1778925;80;21108;-64
2022/04/06 10:08:46;;;;;;;2.75;2.00;;;;;;;16.44;38.01;95202.25;1778666;81;21112;-64
2022/04/06 10:11:13;;;;;;;3.10;1.90;;;;;;;16.25;39.63;95199.58;1779749;81;21030;-64
2022/04/06 10:13:40;;;;;;;2.22;1.95;;;;;;;16.11;38.82;95203.38;1779874;80;21058;-63
2022/04/06 10:16:12;;;;;;;2.42;2.17;;;;;;;15.79;40.43;95204.38;1783738;80;21017;-64
2022/04/06 10:18:40;;;;;;;2.00;1.80;;;;;;;15.85;40.29;95194.80;1787127;80;21108;-64
2022/04/06 10:21:32;;;;;;;2.75;1.67;;;;;;;15.94;40.32;95193.50;1786953;80;21017;-63
2022/04/06 10:24:10;;;;;;;3.02;1.80;;;;;;;16.00;41.32;95187.44;1787149;80;20994;-63
2022/04/06 10:26:53;;;;;;;2.83;2.40;;;;;;;16.11;40.06;95190.06;1786933;80;21495;-64
2022/04/06 10:29:20;;;;;;;2.60;2.40;;;;;;;16.48;40.25;95183.87;1787412;80;21005;-63
2022/04/06 10:31:48;;;;;;;5.85;3.95;;;;;;;17.02;38.78;95179.43;1787097;80;21013;-64
2022/04/06 10:34:33;;;;;;;2.40;2.20;;;;;;;17.22;37.22;95190.42;1787159;80;20998;-64
2022/04/06 10:37:15;;;;;;;8.55;5.87;;;;;;;17.13;36.98;95186.02;1786964;80;21030;-63
2022/04/06 10:39:59;;;;;;;2.10;1.90;;;;;;;17.17;36.59;95186.27;1787565;80;20978;-63
2022/04/06 10:42:33;;;;;;;2.70;2.30;;;;;;;17.18;37.42;95185.31;1786952;80;21069;-63
2022/04/06 10:45:02;;;;;;;9.03;8.05;;;;;;;17.08;37.17;95184.91;1787137;80;21054;-63
2022/04/06 10:47:29;;;;;;;2.08;1.87;;;;;;;17.20;37.72;95188.77;1787217;80;21025;-63
2022/04/06 10:50:19;;;;;;;2.60;2.40;;;;;;;17.63;38.14;95181.20;1787129;80;21009;-64
2022/04/06 10:52:46;;;;;;;2.45;2.10;;;;;;;17.70;36.36;95178.13;1787219;80;21057;-63
2022/04/06 10:55:23;;;;;;;2.60;2.37;;;;;;;17.38;35.45;95174.48;1786909;80;21025;-64
2022/04/06 10:58:03;;;;;;;2.33;1.70;;;;;;;17.09;36.87;95187.52;1787294;80;21486;-64
2022/04/06 11:00:31;;;;;;;2.52;1.65;;;;;;;16.87;36.45;95193.05;1787320;80;21053;-64
2022/04/06 11:03:18;;;;;;;2.55;1.40;;;;;;;16.79;37.12;95191.25;1787236;80;21049;-64
2022/04/06 11:05:49;;;;;;;1.60;1.50;;;;;;;16.58;37.19;95191.80;1787021;80;21006;-63
2022/04/06 11:11:45;;;;;;;2.50;1.52;;;;;;;16.70;38.30;95188.98;1787303;80;21005;-64
2022/04/06 11:14:33;;;;;;;1.85;1.75;;;;;;;16.89;36.96;95190.32;1787239;80;20994;-61
2022/04/06 11:16:56;;;;;;;1.27;1.17;;;;;;;16.90;35.46;95183.19;1784927;80;20982;-61
2022/04/06 11:19:24;;;;;;;1.30;0.85;;;;;;;16.88;34.81;95177.92;1787026;80;21447;-61
2022/04/06 11:21:55;;;;;;;2.17;1.60;;;;;;;17.02;35.94;95170.58;1787017;80;21456;-61
2022/04/06 11:24:27;;;;;;;2.65;1.65;;;;;;;17.30;35.54;95158.88;1787287;80;21001;-61
2022/04/06 11:26:55;;;;;;;1.60;1.25;;;;;;;17.51;34.72;95161.36;1787309;80;20989;-61
2022/04/06 11:29:28;;;;;;;2.47;1.40;;;;;;;17.66;35.02;95163.22;1787293;80;21436;-61
2022/04/06 11:32:04;;;;;;;1.50;1.40;;;;;;;18.02;35.02;95151.55;1786855;80;21033;-61
2022/04/06 11:34:40;;;;;;;2.40;1.60;;;;;;;18.45;35.44;95149.64;1780798;80;21071;-61
2022/04/06 11:37:09;;;;;;;4.25;1.77;;;;;;;18.80;35.44;95146.31;1780810;80;20997;-61
2022/04/06 11:39:36;;;;;;;3.37;1.70;;;;;;;19.05;33.74;95160.90;1780823;80;21058;-61
2022/04/06 11:42:10;;;;;;;2.58;1.57;;;;;;;19.33;32.55;95136.92;1780760;80;21099;-61
2022/04/06 11:44:37;;;;;;;1.75;1.50;;;;;;;20.03;31.98;95144.25;1779514;80;21009;-62
2022/04/06 11:47:03;;;;;;;2.10;1.50;;;;;;;20.50;30.98;95143.89;1776749;80;20993;-61
2022/04/06 11:49:30;;;;;;;2.00;1.40;;;;;;;20.24;30.86;95147.41;1780421;80;21027;-62
2022/04/06 11:51:59;;;;;;;1.57;1.40;;;;;;;20.40;30.23;95137.90;1780983;80;20947;-61
2022/04/06 11:54:26;;;;;;;1.80;1.70;;;;;;;20.25;30.11;95132.56;1780503;80;20980;-61